Time;durP1;ratioP1;P1;durP2;ratioP2;P2;SDS_P1;SDS_P2;PMS_P1;PMS_P2;Temp;Humidity;BMP_temperature;BMP_pressure;BME280_temperature;BME280_humidity;BME280_pressure;Samples;Min_cycle;Max_cycle;Signal;HPM_P1;HPM_P2
2024/01/16 00:00:08;;;;;;;1.65;0.88;;;;;;;3.26;100.00;98906.84;5036549;28;20513;-76
2024/01/16 00:02:34;;;;;;;20.48;6.72;;;;;;;2.94;100.00;98912.72;5035361;28;20064;-76
2024/01/16 00:04:59;;;;;;;5.32;5.05;;;;;;;2.89;100.00;98901.44;5035700;28;20393;-76
2024/01/16 00:07:25;;;;;;;5.07;4.78;;;;;;;2.78;100.00;98852.16;5036969;28;20120;-77
2024/01/16 00:09:53;;;;;;;6.88;6.47;;;;;;;3.15;100.00;98928.38;5029265;28;20049;-75
2024/01/16 00:12:19;;;;;;;13.98;13.18;;;;;;;3.28;100.00;98950.06;5036949;28;20049;-77
2024/01/16 00:14:44;;;;;;;2.85;2.75;;;;;;;3.22;100.00;98931.88;5027948;28;20045;-75
2024/01/16 00:17:10;;;;;;;5.10;4.78;;;;;;;3.31;100.00;98959.56;5033754;28;20500;-78
2024/01/16 00:19:35;;;;;;;0.40;0.40;;;;;;;3.28;100.00;98952.66;5028004;28;20076;-76
2024/01/16 00:22:02;;;;;;;3.38;3.08;;;;;;;3.09;100.00;98924.88;5047270;28;20275;-76
2024/01/16 00:24:28;;;;;;;9.95;9.38;;;;;;;2.92;100.00;98881.59;5032510;28;20071;-76
2024/01/16 00:26:53;;;;;;;2.40;2.25;;;;;;;3.29;100.00;98935.38;5026063;28;20046;-76
2024/01/16 00:29:20;;;;;;;2.85;2.65;;;;;;;2.81;100.00;98861.66;5031843;28;20095;-75
2024/01/16 00:31:45;;;;;;;1.70;1.60;;;;;;;3.37;100.00;98963.06;5035334;28;20036;-76
2024/01/16 00:34:11;;;;;;;2.45;2.33;;;;;;;2.73;100.00;98864.22;5038963;28;20041;-75
2024/01/16 00:36:37;;;;;;;10.00;9.45;;;;;;;3.44;100.00;98971.75;5035642;28;20051;-74
2024/01/16 00:39:03;;;;;;;2.38;2.28;;;;;;;3.47;100.00;98974.34;5038074;28;20037;-77
2024/01/16 00:41:28;;;;;;;5.70;5.30;;;;;;;3.43;100.00;98980.38;5056946;28;20045;-77
2024/01/16 00:43:54;;;;;;;1.90;1.80;;;;;;;3.34;100.00;98965.63;5050088;28;20170;-75
2024/01/16 00:46:20;;;;;;;5.13;4.70;;;;;;;2.79;100.00;98918.66;5052168;28;20064;-76
2024/01/16 00:48:46;;;;;;;2.35;2.17;;;;;;;3.16;100.00;98956.03;5047313;28;20045;-75
2024/01/16 00:51:11;;;;;;;0.70;0.70;;;;;;;3.22;100.00;98938.78;5045676;28;20056;-75
2024/01/16 00:53:41;;;;;;;7.60;7.05;;;;;;;2.73;100.00;98872.00;5048051;28;20052;-75
2024/01/16 00:56:07;;;;;;;6.65;5.97;;;;;;;3.26;100.00;98956.09;5061393;28;20035;-78
2024/01/16 00:58:32;;;;;;;2.67;2.08;;;;;;;3.40;100.00;98982.09;5059481;28;20041;-76
2024/01/16 01:00:58;;;;;;;1.35;1.27;;;;;;;3.31;100.00;98963.03;5060454;28;20064;-77
2024/01/16 01:03:23;;;;;;;2.70;2.50;;;;;;;2.90;100.00;98953.28;5056165;28;20049;-76
2024/01/16 01:05:49;;;;;;;2.13;2.03;;;;;;;2.67;100.00;98878.00;5061534;28;20048;-79
2024/01/16 01:08:14;;;;;;;2.30;2.20;;;;;;;2.81;100.00;98872.91;5067421;28;20048;-77
2024/01/16 01:10:40;;;;;;;3.70;2.92;;;;;;;3.10;100.00;98898.97;5061952;28;20476;-77
2024/01/16 01:13:05;;;;;;;0.45;0.45;;;;;;;3.14;100.00;98886.91;5052807;28;20496;-76
2024/01/16 01:15:31;;;;;;;1.75;1.65;;;;;;;3.14;100.00;98889.50;5066174;28;20036;-76
2024/01/16 01:17:56;;;;;;;0.60;0.60;;;;;;;3.10;100.00;98886.03;5059768;28;20175;-77
2024/01/16 01:20:22;;;;;;;1.00;1.00;;;;;;;3.74;100.00;98990.91;5058313;28;20119;-77
2024/01/16 01:22:48;;;;;;;1.00;1.00;;;;;;;3.75;100.00;98990.91;5063236;28;20029;-78
2024/01/16 01:25:13;;;;;;;0.63;0.63;;;;;;;3.20;100.00;98884.34;5058028;28;20040;-78
2024/01/16 01:27:39;;;;;;;1.17;1.08;;;;;;;3.70;100.00;98971.88;5059713;28;20078;-76
2024/01/16 01:30:07;;;;;;;0.50;0.50;;;;;;;3.95;100.00;98992.72;5066047;28;20519;-80
2024/01/16 01:32:32;;;;;;;0.30;0.30;;;;;;;3.78;100.00;98980.53;5047256;28;20045;-78
2024/01/16 01:34:59;;;;;;;0.70;0.70;;;;;;;3.74;100.00;98952.84;5064715;28;20484;-77
2024/01/16 01:37:25;;;;;;;0.35;0.35;;;;;;;4.03;100.00;98978.06;5067037;28;20105;-80
2024/01/16 01:39:51;;;;;;;0.57;0.57;;;;;;;3.13;100.00;98839.38;5063454;28;20044;-78
2024/01/16 01:42:17;;;;;;;1.15;1.13;;;;;;;3.72;100.00;98920.88;5055121;28;20102;-77
2024/01/16 01:44:42;;;;;;;2.45;2.35;;;;;;;3.50;100.00;98900.91;5060359;28;20489;-78
2024/01/16 01:47:08;;;;;;;0.30;0.30;;;;;;;3.54;100.00;98915.63;5051441;28;20067;-81
2024/01/16 01:49:36;;;;;;;0.20;0.20;;;;;;;4.06;100.00;99000.56;5066884;28;20085;-79
2024/01/16 01:52:03;;;;;;;0.57;0.57;;;;;;;3.85;100.00;98985.75;5065917;28;20063;-78
2024/01/16 01:54:31;;;;;;;0.68;0.68;;;;;;;3.46;100.00;98902.59;5059977;28;20044;-82
2024/01/16 01:56:56;;;;;;;0.30;0.30;;;;;;;4.08;100.00;99001.44;5055329;28;20476;-78
2024/01/16 01:59:24;;;;;;;1.60;1.55;;;;;;;4.08;100.00;98986.72;5055023;28;20098;-79
2024/01/16 02:01:54;;;;;;;0.30;0.30;;;;;;;3.53;100.00;98921.66;5064106;28;20480;-78
2024/01/16 02:04:21;;;;;;;2.58;1.65;;;;;;;3.72;100.00;98988.31;5046356;28;20087;-78
2024/01/16 02:06:47;;;;;;;2.38;2.28;;;;;;;4.05;100.00;99006.59;5065949;28;20089;-79
2024/01/16 02:09:13;;;;;;;1.25;1.15;;;;;;;3.68;100.00;98941.59;5063612;28;20132;-79
2024/01/16 02:11:40;;;;;;;0.77;0.77;;;;;;;3.63;100.00;98935.50;5055805;28;20598;-80
2024/01/16 02:14:05;;;;;;;1.05;0.40;;;;;;;3.36;100.00;98912.06;5060341;28;20063;-78
2024/01/16 02:16:38;;;;;;;4.10;3.70;;;;;;;4.01;100.00;99040.31;5066768;28;20739;-79
2024/01/16 02:19:04;;;;;;;2.15;2.05;;;;;;;3.91;100.00;99035.97;5064247;28;20033;-78
2024/01/16 02:21:39;;;;;;;0.35;0.35;;;;;;;3.63;100.00;98964.03;5065789;28;20149;-76
2024/01/16 02:24:10;;;;;;;0.40;0.40;;;;;;;3.16;100.00;98885.19;5056089;28;20056;-79
2024/01/16 02:26:35;;;;;;;1.20;1.20;;;;;;;3.37;100.00;98957.88;5061901;28;20033;-79
2024/01/16 02:29:02;;;;;;;8.98;8.13;;;;;;;3.87;100.00;99035.94;5049031;28;20037;-77
2024/01/16 02:31:28;;;;;;;0.40;0.40;;;;;;;3.90;100.00;99039.41;5065831;28;20526;-80
2024/01/16 02:33:53;;;;;;;0.50;0.50;;;;;;;3.43;100.00;98977.78;5065267;28;20127;-78
2024/01/16 02:36:19;;;;;;;1.73;1.63;;;;;;;3.37;100.00;98969.97;5055828;28;20107;-78
2024/01/16 02:38:44;;;;;;;0.77;0.77;;;;;;;3.75;100.00;99037.63;5065302;28;20037;-78
2024/01/16 02:41:13;;;;;;;2.35;2.22;;;;;;;3.26;100.00;98958.69;5055435;28;20040;-80
2024/01/16 02:43:38;;;;;;;0.30;0.30;;;;;;;3.45;100.00;99051.25;5058288;28;20056;-80
2024/01/16 02:46:04;;;;;;;0.63;0.63;;;;;;;3.76;100.00;99060.09;5065401;28;20068;-79
2024/01/16 02:48:29;;;;;;;0.50;0.50;;;;;;;3.78;100.00;99068.75;5065469;28;20068;-77
2024/01/16 02:50:55;;;;;;;0.70;0.70;;;;;;;3.10;100.00;98966.34;5064860;28;20044;-78
2024/01/16 02:53:20;;;;;;;0.85;0.85;;;;;;;3.22;100.00;98973.34;5047921;28;20086;-79
2024/01/16 02:55:46;;;;;;;1.80;1.70;;;;;;;3.77;100.00;99086.91;5048602;28;20037;-76
2024/01/16 02:58:11;;;;;;;1.55;1.38;;;;;;;3.86;100.00;99086.94;5065226;28;20416;-78
2024/01/16 03:00:37;;;;;;;1.60;1.52;;;;;;;3.12;100.00;99007.84;5064938;28;20473;-75
2024/01/16 03:03:04;;;;;;;0.95;0.85;;;;;;;3.21;100.00;99007.00;5063012;28;20469;-77
2024/01/16 03:05:30;;;;;;;0.73;0.73;;;;;;;3.27;100.00;99028.66;5065240;28;20462;-75
2024/01/16 03:07:56;;;;;;;0.50;0.50;;;;;;;3.45;100.00;99059.03;5065367;28;20055;-77
2024/01/16 03:10:22;;;;;;;0.30;0.30;;;;;;;3.01;100.00;99002.56;5060539;28;20036;-78
2024/01/16 03:12:47;;;;;;;3.00;2.90;;;;;;;3.53;100.00;99103.16;5057774;28;20056;-78
2024/01/16 03:15:13;;;;;;;19.30;8.55;;;;;;;2.91;100.00;99005.97;5065319;28;20052;-78
2024/01/16 03:17:38;;;;;;;11.52;10.80;;;;;;;3.76;100.00;99124.06;5064337;28;20083;-76
2024/01/16 03:20:04;;;;;;;0.30;0.30;;;;;;;3.06;100.00;99013.81;5060903;28;20045;-77
2024/01/16 03:22:30;;;;;;;1.48;1.42;;;;;;;3.43;100.00;99094.47;5071470;28;20051;-77
2024/01/16 03:24:56;;;;;;;2.85;2.70;;;;;;;3.00;100.00;99047.47;5059553;28;20049;-77
2024/01/16 03:27:22;;;;;;;0.50;0.50;;;;;;;3.42;100.00;99102.22;5060653;28;20037;-77
2024/01/16 03:29:47;;;;;;;1.17;1.17;;;;;;;3.47;100.00;99126.47;5068194;28;20040;-76
2024/01/16 03:32:14;;;;;;;2.15;2.05;;;;;;;3.45;100.00;99082.38;5065257;28;20045;-77
2024/01/16 03:34:40;;;;;;;2.10;2.00;;;;;;;3.07;100.00;99025.09;5065547;28;20543;-76
2024/01/16 03:37:07;;;;;;;3.70;3.50;;;;;;;3.77;100.00;99110.28;5069446;28;20094;-78
2024/01/16 03:39:32;;;;;;;0.50;0.50;;;;;;;3.55;100.00;99104.06;5046868;28;20072;-76
2024/01/16 03:41:58;;;;;;;7.78;7.15;;;;;;;3.04;100.00;99018.13;5058187;28;20497;-75
2024/01/16 03:44:24;;;;;;;3.97;3.75;;;;;;;3.48;100.00;99113.50;5050235;28;20047;-77
2024/01/16 03:46:49;;;;;;;0.73;0.73;;;;;;;3.03;100.00;99033.69;5062047;28;20123;-77
2024/01/16 03:49:15;;;;;;;0.40;0.40;;;;;;;3.73;100.00;99143.09;5068458;28;20068;-76
2024/01/16 03:51:44;;;;;;;1.80;1.70;;;;;;;3.47;100.00;99090.19;5067733;28;20499;-77
2024/01/16 03:54:13;;;;;;;1.40;1.30;;;;;;;3.87;100.00;99156.16;5043901;28;20041;-77
2024/01/16 03:56:39;;;;;;;0.60;0.60;;;;;;;3.71;100.00;99175.06;5063106;28;20056;-75
2024/01/16 03:59:05;;;;;;;0.60;0.60;;;;;;;3.91;100.00;99195.94;5048788;28;20083;-76
2024/01/16 04:01:33;;;;;;;0.30;0.30;;;;;;;3.34;100.00;99097.84;5042318;28;20129;-79
2024/01/16 04:03:59;;;;;;;1.20;1.10;;;;;;;4.09;100.00;99216.84;5055277;28;20084;-78
2024/01/16 04:06:26;;;;;;;0.82;0.80;;;;;;;3.88;100.00;99209.78;5066260;28;20064;-76
2024/01/16 04:08:51;;;;;;;6.18;5.75;;;;;;;3.79;100.00;99207.09;5065252;28;20040;-77
2024/01/16 04:11:17;;;;;;;0.57;0.57;;;;;;;3.98;100.00;99240.16;5061871;28;20052;-77
2024/01/16 04:13:43;;;;;;;1.02;1.00;;;;;;;3.95;100.00;99213.28;5064657;28;20052;-76
2024/01/16 04:16:12;;;;;;;0.57;0.57;;;;;;;4.05;100.00;99251.44;5062220;28;20043;-76
2024/01/16 04:18:40;;;;;;;0.40;0.40;;;;;;;3.74;100.00;99258.97;5062164;28;20051;-77
2024/01/16 04:21:09;;;;;;;1.10;1.10;;;;;;;3.81;100.00;99271.13;5064049;28;20049;-76
2024/01/16 04:23:35;;;;;;;5.40;5.10;;;;;;;3.90;100.00;99287.66;5054027;28;20186;-76
2024/01/16 04:26:00;;;;;;;0.40;0.40;;;;;;;3.88;100.00;99285.03;5047914;28;20028;-77
2024/01/16 04:28:26;;;;;;;0.95;0.95;;;;;;;3.29;100.00;99184.22;5066087;28;20747;-77
2024/01/16 04:30:52;;;;;;;0.40;0.40;;;;;;;3.18;100.00;99186.69;5064942;28;20041;-76
2024/01/16 04:33:18;;;;;;;0.93;0.63;;;;;;;3.65;100.00;99287.41;5063548;28;20053;-77
2024/01/16 04:35:44;;;;;;;3.15;3.05;;;;;;;3.04;100.00;99189.16;5059498;28;20044;-77
2024/01/16 04:38:09;;;;;;;2.25;2.15;;;;;;;3.11;100.00;99206.53;5035871;28;20088;-77
2024/01/16 04:40:35;;;;;;;0.30;0.30;;;;;;;3.45;100.00;99292.41;5056148;28;20059;-77
2024/01/16 04:43:00;;;;;;;1.08;0.70;;;;;;;3.49;100.00;99333.09;5061167;28;20048;-76
2024/01/16 04:45:26;;;;;;;3.13;3.03;;;;;;;3.40;100.00;99299.28;5065950;28;20040;-75
2024/01/16 04:47:52;;;;;;;0.50;0.50;;;;;;;3.59;100.00;99334.91;5063045;28;20056;-75
2024/01/16 04:50:18;;;;;;;0.38;0.38;;;;;;;2.98;100.00;99243.50;5052968;28;20041;-76
2024/01/16 04:52:44;;;;;;;0.43;0.43;;;;;;;3.25;100.00;99306.88;5068165;28;20024;-74
2024/01/16 04:55:10;;;;;;;0.70;0.70;;;;;;;3.18;100.00;99292.97;5055232;28;20172;-75
2024/01/16 04:57:35;;;;;;;1.45;1.35;;;;;;;3.43;100.00;99351.16;5057598;28;20044;-76
2024/01/16 05:00:06;;;;;;;4.07;3.75;;;;;;;2.96;100.00;99256.44;5048713;28;20086;-76
2024/01/16 05:02:33;;;;;;;0.68;0.40;;;;;;;3.11;100.00;99319.66;5060051;28;20057;-76
2024/01/16 05:04:59;;;;;;;0.50;0.50;;;;;;;2.81;100.00;99270.91;5055035;28;20119;-78
2024/01/16 05:07:24;;;;;;;1.45;1.35;;;;;;;2.97;100.00;99342.81;5036762;28;21558;-79
2024/01/16 05:09:50;;;;;;;0.60;0.52;;;;;;;2.82;100.00;99293.41;5063657;28;20067;-76
2024/01/16 05:12:15;;;;;;;0.30;0.30;;;;;;;2.69;100.00;99264.75;5061362;28;20559;-79
2024/01/16 05:14:41;;;;;;;2.03;1.92;;;;;;;3.23;100.00;99379.44;5066798;28;20037;-77
2024/01/16 05:17:08;;;;;;;1.48;1.38;;;;;;;2.45;100.00;99285.97;5050859;28;20395;-76
2024/01/16 05:19:33;;;;;;;3.13;3.03;;;;;;;2.42;100.00;99287.69;5062458;28;20036;-77
2024/01/16 05:21:59;;;;;;;0.73;0.52;;;;;;;1.80;100.00;99211.72;5054124;28;20087;-78
2024/01/16 05:24:24;;;;;;;2.05;1.95;;;;;;;2.77;100.00;99367.59;5052333;28;20055;-79
2024/01/16 05:26:50;;;;;;;0.60;0.60;;;;;;;2.33;100.00;99272.88;5053044;28;20156;-78
2024/01/16 05:29:17;;;;;;;5.50;4.13;;;;;;;2.92;100.00;99380.75;5065887;28;20063;-75
2024/01/16 05:31:43;;;;;;;0.45;0.40;;;;;;;2.89;100.00;99398.84;5054375;28;20465;-78
2024/01/16 05:34:11;;;;;;;3.05;1.55;;;;;;;2.38;100.00;99333.34;5065890;28;20154;-77
2024/01/16 05:36:37;;;;;;;1.88;1.77;;;;;;;2.54;100.00;99344.81;5058879;28;20053;-79
2024/01/16 05:39:03;;;;;;;0.40;0.40;;;;;;;2.79;100.00;99421.16;5051903;28;20048;-78
2024/01/16 05:41:33;;;;;;;0.50;0.50;;;;;;;2.82;100.00;99408.25;5057611;28;20047;-77
2024/01/16 05:43:59;;;;;;;0.80;0.80;;;;;;;3.01;100.00;99434.41;5062827;28;20075;-77
2024/01/16 05:46:25;;;;;;;0.40;0.40;;;;;;;2.20;100.00;99335.63;5042922;28;20076;-77
2024/01/16 05:48:50;;;;;;;0.50;0.50;;;;;;;2.14;100.00;99320.91;5065389;28;20052;-77
2024/01/16 05:51:16;;;;;;;1.17;1.17;;;;;;;2.34;100.00;99313.44;5061454;28;20045;-78
2024/01/16 05:53:41;;;;;;;0.30;0.30;;;;;;;2.82;100.00;99412.56;5054085;28;20493;-78
2024/01/16 05:56:07;;;;;;;0.75;0.75;;;;;;;2.67;100.00;99468.47;5059327;28;20062;-79
2024/01/16 05:58:38;;;;;;;6.05;5.57;;;;;;;2.78;100.00;99463.44;5062421;28;20025;-77
2024/01/16 06:01:04;;;;;;;0.22;0.22;;;;;;;2.12;100.00;99428.66;5053313;28;20056;-77
2024/01/16 06:03:30;;;;;;;10.73;9.82;;;;;;;2.84;100.00;99524.84;5034244;28;20692;-77
2024/01/16 06:05:56;;;;;;;0.40;0.40;;;;;;;2.79;100.00;99540.31;5064620;28;20048;-79
2024/01/16 06:08:21;;;;;;;0.40;0.40;;;;;;;2.87;100.00;99536.13;5064759;28;20499;-76
2024/01/16 06:10:48;;;;;;;1.00;1.00;;;;;;;2.50;100.00;99529.44;5063355;28;20468;-78
2024/01/16 06:13:13;;;;;;;0.30;0.30;;;;;;;2.66;100.00;99528.84;5055227;28;20087;-78
2024/01/16 06:15:40;;;;;;;0.35;0.35;;;;;;;2.74;100.00;99550.59;5060087;28;20544;-77
2024/01/16 06:18:05;;;;;;;1.10;1.00;;;;;;;2.73;100.00;99558.31;5068795;28;20059;-79
2024/01/16 06:20:32;;;;;;;0.30;0.30;;;;;;;1.85;100.00;99455.78;5066220;28;20044;-78
2024/01/16 06:22:58;;;;;;;3.35;3.20;;;;;;;2.45;100.00;99542.28;5053187;28;20040;-77
2024/01/16 06:25:23;;;;;;;12.35;11.35;;;;;;;2.62;100.00;99581.47;5059732;28;20068;-78
2024/01/16 06:27:50;;;;;;;3.30;3.10;;;;;;;2.47;100.00;99571.69;5056103;28;20072;-79
2024/01/16 06:30:16;;;;;;;0.77;0.77;;;;;;;2.67;100.00;99569.47;5061164;28;20041;-80
2024/01/16 06:32:41;;;;;;;2.70;2.60;;;;;;;2.62;100.00;99594.41;5041727;28;20056;-78
2024/01/16 06:35:08;;;;;;;0.40;0.40;;;;;;;2.78;100.00;99586.91;5034837;28;20052;-79
2024/01/16 06:37:33;;;;;;;0.73;0.73;;;;;;;2.46;100.00;99558.72;5039375;28;20049;-79
2024/01/16 06:39:59;;;;;;;3.72;3.53;;;;;;;2.06;100.00;99509.66;5049994;28;20047;-71
2024/01/16 06:42:24;;;;;;;1.50;1.30;;;;;;;1.96;100.00;99530.13;5040041;28;20067;-72
2024/01/16 06:44:50;;;;;;;0.32;0.32;;;;;;;2.49;100.00;99615.72;5052710;28;20708;-72
2024/01/16 06:47:15;;;;;;;7.97;7.57;;;;;;;2.67;100.00;99641.09;5048977;28;20480;-72
2024/01/16 06:49:41;;;;;;;5.35;4.88;;;;;;;2.75;100.00;99645.56;5042973;28;20037;-72
2024/01/16 06:52:08;;;;;;;0.63;0.43;;;;;;;2.19;100.00;99541.81;5045524;28;20488;-73
2024/01/16 06:54:33;;;;;;;0.50;0.50;;;;;;;2.27;100.00;99554.88;5038769;28;20790;-74
2024/01/16 06:56:59;;;;;;;0.30;0.30;;;;;;;2.87;100.00;99655.28;5062640;28;20049;-72
2024/01/16 06:59:24;;;;;;;0.40;0.40;;;;;;;2.96;100.00;99655.47;5046492;28;20052;-73
2024/01/16 07:01:50;;;;;;;7.07;6.53;;;;;;;2.31;100.00;99590.34;5061737;28;20029;-72
2024/01/16 07:04:16;;;;;;;1.33;1.30;;;;;;;2.23;100.00;99561.72;5048178;28;20056;-72
2024/01/16 07:06:43;;;;;;;0.57;0.57;;;;;;;2.94;100.00;99656.28;5069487;28;20127;-74
2024/01/16 07:09:10;;;;;;;1.42;1.33;;;;;;;2.31;100.00;99570.50;5066427;28;20143;-72
2024/01/16 07:11:37;;;;;;;2.28;1.77;;;;;;;2.66;100.00;99676.47;5056328;28;20489;-74
2024/01/16 07:14:03;;;;;;;0.80;0.80;;;;;;;2.71;100.00;99694.69;5059323;28;20078;-73
2024/01/16 07:16:28;;;;;;;0.50;0.50;;;;;;;2.79;100.00;99697.47;5069882;28;20483;-72
2024/01/16 07:18:55;;;;;;;9.88;9.23;;;;;;;2.54;100.00;99619.28;5061196;28;20484;-72
2024/01/16 07:21:21;;;;;;;0.40;0.40;;;;;;;3.12;100.00;99718.84;5067694;28;20052;-73
2024/01/16 07:23:47;;;;;;;1.10;1.10;;;;;;;3.23;100.00;99707.78;5046660;28;20584;-72
2024/01/16 07:26:13;;;;;;;2.58;2.42;;;;;;;3.05;100.00;99683.28;5061337;28;20032;-72
2024/01/16 07:28:38;;;;;;;0.30;0.30;;;;;;;3.03;100.00;99659.06;5050980;28;20032;-72
2024/01/16 07:31:05;;;;;;;1.52;1.42;;;;;;;3.26;100.00;99720.81;5066994;28;20067;-71
2024/01/16 07:33:31;;;;;;;0.30;0.30;;;;;;;3.45;100.00;99754.00;5051543;28;20142;-73
2024/01/16 07:35:57;;;;;;;2.55;2.35;;;;;;;3.46;100.00;99763.50;5068826;28;20170;-72
2024/01/16 07:38:22;;;;;;;0.38;0.38;;;;;;;3.40;100.00;99760.81;5061276;28;20051;-74
2024/01/16 07:40:49;;;;;;;0.95;0.95;;;;;;;3.02;100.00;99677.16;5069121;28;20032;-72
2024/01/16 07:43:16;;;;;;;0.30;0.30;;;;;;;3.42;100.00;99760.84;5043531;28;20048;-72
2024/01/16 07:45:41;;;;;;;4.93;4.70;;;;;;;3.57;100.00;99780.16;5044777;28;20178;-72
2024/01/16 07:48:08;;;;;;;0.47;0.47;;;;;;;3.67;100.00;99770.81;5068205;28;20037;-71
2024/01/16 07:50:33;;;;;;;0.50;0.50;;;;;;;3.14;100.00;99691.22;5069264;28;20063;-72
2024/01/16 07:52:59;;;;;;;1.52;1.48;;;;;;;3.04;100.00;99665.09;5043255;28;20037;-72
2024/01/16 07:55:24;;;;;;;0.40;0.40;;;;;;;3.28;100.00;99688.00;5062800;28;20127;-72
2024/01/16 07:57:50;;;;;;;1.05;1.05;;;;;;;3.92;100.00;99794.59;5052674;28;20098;-72
2024/01/16 08:00:16;;;;;;;8.38;7.80;;;;;;;3.53;100.00;99712.63;5062416;28;20519;-73
2024/01/16 08:02:41;;;;;;;2.45;2.35;;;;;;;3.68;100.00;99769.97;5065837;28;20041;-72
2024/01/16 08:05:07;;;;;;;1.05;1.05;;;;;;;3.47;100.00;99695.25;5068050;28;20036;-71
2024/01/16 08:07:34;;;;;;;1.65;1.58;;;;;;;4.12;100.00;99758.56;5036961;28;20366;-73
2024/01/16 08:10:00;;;;;;;0.40;0.40;;;;;;;3.72;100.00;99686.16;5054028;28;20093;-74
2024/01/16 08:12:25;;;;;;;1.10;1.10;;;;;;;4.19;100.00;99779.47;5045248;28;20111;-72
2024/01/16 08:14:52;;;;;;;1.48;1.45;;;;;;;4.15;100.00;99730.06;5060815;28;20033;-74
2024/01/16 08:17:17;;;;;;;1.42;1.38;;;;;;;3.63;100.00;99711.06;5067544;28;20044;-73
2024/01/16 08:19:43;;;;;;;1.52;1.42;;;;;;;3.95;100.00;99728.00;5042993;28;20025;-72
2024/01/16 08:22:08;;;;;;;3.22;1.20;;;;;;;4.36;100.00;99774.50;5064520;28;20053;-71
2024/01/16 08:24:34;;;;;;;0.45;0.45;;;;;;;4.14;100.00;99762.91;5050612;28;20056;-72
2024/01/16 08:26:59;;;;;;;4.93;4.50;;;;;;;3.98;100.00;99709.91;5049957;28;20049;-72
2024/01/16 08:29:25;;;;;;;1.75;1.65;;;;;;;4.74;100.00;99805.34;5063665;28;20147;-72
2024/01/16 08:31:52;;;;;;;0.65;0.65;;;;;;;4.42;100.00;99735.66;5057139;28;20032;-72
2024/01/16 08:34:18;;;;;;;0.57;0.57;;;;;;;4.55;100.00;99801.63;5060065;28;20040;-73
2024/01/16 08:36:44;;;;;;;1.15;1.15;;;;;;;3.79;100.00;99646.50;5058200;28;20051;-71
2024/01/16 08:39:10;;;;;;;1.48;0.82;;;;;;;4.77;100.00;99830.50;5049308;28;20045;-72
2024/01/16 08:41:36;;;;;;;0.75;0.75;;;;;;;4.30;100.00;99745.84;5063705;28;20045;-72
2024/01/16 08:44:01;;;;;;;0.68;0.52;;;;;;;4.92;100.00;99828.13;5068248;28;20037;-74
2024/01/16 08:46:28;;;;;;;0.30;0.30;;;;;;;5.04;100.00;99828.28;5068258;28;20472;-73
2024/01/16 08:48:54;;;;;;;2.47;2.38;;;;;;;4.89;100.00;99811.59;5060126;28;20028;-73
2024/01/16 08:51:20;;;;;;;0.77;0.77;;;;;;;4.44;100.00;99720.94;5065924;28;20045;-71
2024/01/16 08:53:45;;;;;;;0.40;0.40;;;;;;;4.68;100.00;99744.63;5054672;28;20757;-73
2024/01/16 08:56:12;;;;;;;0.30;0.30;;;;;;;4.97;100.00;99729.41;5046546;28;20816;-73
2024/01/16 08:58:40;;;;;;;0.30;0.30;;;;;;;4.35;100.00;99733.78;5062133;28;20115;-71
2024/01/16 09:01:06;;;;;;;3.00;0.85;;;;;;;5.14;100.00;99792.88;5061585;28;20044;-72
2024/01/16 09:03:33;;;;;;;0.65;0.52;;;;;;;5.30;100.00;99801.72;5059622;28;20052;-74
2024/01/16 09:05:59;;;;;;;0.50;0.50;;;;;;;5.21;100.00;99854.50;5066844;28;20025;-71
2024/01/16 09:08:27;;;;;;;0.30;0.30;;;;;;;4.65;100.00;99779.25;5066852;28;20109;-72
2024/01/16 09:10:53;;;;;;;0.30;0.30;;;;;;;5.48;100.00;99871.31;5028573;28;20514;-73
2024/01/16 09:13:20;;;;;;;0.80;0.80;;;;;;;5.59;100.00;99866.22;5045352;28;20461;-72
2024/01/16 09:15:46;;;;;;;0.40;0.40;;;;;;;5.68;100.00;99872.38;5061029;28;20044;-72
2024/01/16 09:18:12;;;;;;;0.40;0.40;;;;;;;5.04;100.00;99783.22;5066451;28;20079;-73
2024/01/16 09:20:38;;;;;;;1.42;1.40;;;;;;;5.58;100.00;99890.50;5066709;28;20123;-72
2024/01/16 09:23:04;;;;;;;1.45;1.40;;;;;;;5.68;100.00;99888.00;5048149;28;20036;-73
2024/01/16 09:25:29;;;;;;;3.78;3.58;;;;;;;5.60;100.00;99874.06;5048449;28;20028;-72
2024/01/16 09:28:02;;;;;;;0.35;0.35;;;;;;;5.76;100.00;99902.84;5067496;27;20624;-73
2024/01/16 09:30:28;;;;;;;0.47;0.47;;;;;;;5.60;100.00;99876.66;5057184;28;20033;-73
2024/01/16 09:32:53;;;;;;;4.55;4.35;;;;;;;5.87;100.00;99891.69;5063078;28;20064;-75
2024/01/16 09:35:19;;;;;;;0.32;0.32;;;;;;;5.31;100.00;99819.06;5058033;28;20508;-71
2024/01/16 09:37:44;;;;;;;0.52;0.52;;;;;;;5.68;100.00;99848.97;5051711;28;20585;-72
2024/01/16 09:40:10;;;;;;;0.28;0.28;;;;;;;5.86;100.00;99915.13;5058125;28;20356;-72
2024/01/16 09:42:36;;;;;;;0.73;0.73;;;;;;;5.95;100.00;99901.34;5052372;28;20072;-73
2024/01/16 09:45:04;;;;;;;0.30;0.30;;;;;;;6.31;100.00;99925.16;5061544;28;20053;-72
2024/01/16 09:47:34;;;;;;;1.00;1.00;;;;;;;5.82;100.00;99908.13;5060975;28;20448;-72
2024/01/16 09:50:01;;;;;;;7.53;5.78;;;;;;;5.95;100.00;99927.38;5055685;28;20078;-71
2024/01/16 09:52:27;;;;;;;0.30;0.30;;;;;;;6.10;100.00;99925.81;5045344;28;20037;-71
2024/01/16 09:54:52;;;;;;;0.30;0.30;;;;;;;5.61;100.00;99836.75;5046286;28;20048;-73
2024/01/16 09:57:22;;;;;;;0.30;0.30;;;;;;;6.01;100.00;99917.91;5056435;28;20052;-72
2024/01/16 09:59:48;;;;;;;0.65;0.65;;;;;;;5.74;100.00;99842.97;5040610;28;20571;-73
2024/01/16 10:02:15;;;;;;;0.50;0.45;;;;;;;5.69;100.00;99894.09;5058092;28;20045;-74
2024/01/16 10:04:43;;;;;;;0.82;0.77;;;;;;;5.99;100.00;99934.38;5061018;28;20075;-72
2024/01/16 10:07:12;;;;;;;15.23;14.20;;;;;;;6.16;100.00;99908.50;5056182;28;20048;-72
2024/01/16 10:09:41;;;;;;;0.30;0.30;;;;;;;6.20;100.00;99926.78;5059121;28;20394;-73
2024/01/16 10:12:08;;;;;;;0.90;0.85;;;;;;;6.23;100.00;99925.97;5055496;28;20048;-72
2024/01/16 10:14:34;;;;;;;0.73;0.73;;;;;;;6.32;100.00;99918.19;5055058;28;20470;-72
2024/01/16 10:17:25;;;;;;;1.20;1.20;;;;;;;5.84;100.00;99846.53;5062747;28;20025;-74
2024/01/16 10:19:52;;;;;;;0.95;0.95;;;;;;;5.81;100.00;99865.59;5061834;28;20029;-73
2024/01/16 10:22:25;;;;;;;0.65;0.65;;;;;;;6.03;100.00;99903.16;5054847;28;20042;-73
2024/01/16 10:25:12;;;;;;;1.10;1.10;;;;;;;6.27;100.00;99941.59;5031887;28;20071;-72
2024/01/16 10:27:40;;;;;;;0.52;0.52;;;;;;;5.31;100.00;99774.84;5069262;28;20087;-72
2024/01/16 10:30:07;;;;;;;1.20;1.20;;;;;;;5.67;100.00;99907.09;5082082;28;20044;-72
2024/01/16 10:32:44;;;;;;;0.20;0.20;;;;;;;5.87;100.00;99877.78;5081886;28;20053;-72
2024/01/16 10:35:11;;;;;;;0.55;0.50;;;;;;;6.10;100.00;99936.22;5077104;28;20518;-73
2024/01/16 10:37:43;;;;;;;0.40;0.30;;;;;;;6.17;100.00;99954.53;5078150;28;20064;-72
2024/01/16 10:40:09;;;;;;;0.32;0.32;;;;;;;6.10;100.00;99959.66;5056241;28;20107;-72
2024/01/16 10:42:35;;;;;;;0.57;0.45;;;;;;;6.30;100.00;99956.41;5063556;28;20057;-74
2024/01/16 10:45:02;;;;;;;0.30;0.30;;;;;;;6.46;100.00;99947.88;5066895;28;20047;-73
2024/01/16 10:47:28;;;;;;;0.30;0.30;;;;;;;6.30;100.00;99915.59;5065900;28;20044;-72
2024/01/16 10:49:53;;;;;;;0.75;0.45;;;;;;;6.86;100.00;99966.47;5079307;28;20448;-73
2024/01/16 10:52:24;;;;;;;0.30;0.30;;;;;;;6.31;100.00;99885.19;5068477;28;20028;-73
2024/01/16 10:54:51;;;;;;;0.30;0.30;;;;;;;6.44;100.00;99871.41;5049041;28;20056;-74
2024/01/16 10:57:17;;;;;;;1.95;1.85;;;;;;;6.77;100.00;99880.34;5075902;28;20048;-72
2024/01/16 10:59:56;;;;;;;0.30;0.30;;;;;;;7.73;100.00;99962.66;5088225;28;20068;-72
2024/01/16 11:02:29;;;;;;;0.30;0.30;;;;;;;7.33;100.00;99975.50;5077573;28;20051;-74
2024/01/16 11:04:57;;;;;;;0.40;0.40;;;;;;;6.85;100.00;99870.81;5087932;28;20028;-74
2024/01/16 11:07:26;;;;;;;1.98;1.27;;;;;;;7.92;100.00;99968.81;5067208;28;20097;-74
2024/01/16 11:09:52;;;;;;;0.73;0.73;;;;;;;7.66;100.00;99946.06;5033957;28;21965;-72
2024/01/16 11:12:21;;;;;;;0.20;0.20;;;;;;;7.82;100.00;99971.38;5061548;28;20061;-73
2024/01/16 11:14:51;;;;;;;0.30;0.30;;;;;;;7.64;100.00;99895.56;5070462;28;20104;-73
2024/01/16 11:17:20;;;;;;;0.55;0.55;;;;;;;7.49;96.70;99888.56;5066096;28;20044;-73
2024/01/16 11:19:47;;;;;;;0.30;0.30;;;;;;;7.35;99.98;99874.56;5082576;28;20031;-73
2024/01/16 11:22:15;;;;;;;0.38;0.38;;;;;;;8.22;100.00;99988.94;5082684;28;20040;-71
2024/01/16 11:24:42;;;;;;;0.30;0.30;;;;;;;7.71;97.69;99902.56;5057434;28;20462;-75
2024/01/16 11:27:08;;;;;;;1.50;0.73;;;;;;;7.75;95.26;99920.00;5087555;28;20063;-72
2024/01/16 11:29:35;;;;;;;0.63;0.63;;;;;;;8.03;92.72;99990.63;5079971;28;20396;-72